TimeMDT,TemperatureF,Dew PointF,Humidity,Sea Level PressureIn,VisibilityMPH,Wind Direction,Wind SpeedMPH,Gust SpeedMPH,PrecipitationIn,Events,Conditions,WindDirDegrees,DateUTC
12:53 AM,34.0,24.1,67,30.09,10.0,WNW,5.8,-,N/A,,Clear,290,2012-10-07 06:53:00
1:53 AM,35.1,25.0,67,30.09,10.0,NW,3.5,-,N/A,,Clear,310,2012-10-07 07:53:00
2:53 AM,33.1,24.1,70,30.07,10.0,NW,5.8,-,N/A,,Clear,320,2012-10-07 08:53:00
3:53 AM,30.9,25.0,79,30.06,10.0,West,5.8,-,N/A,,Clear,280,2012-10-07 09:53:00
4:53 AM,30.9,27.0,85,30.06,10.0,NW,6.9,-,N/A,,Clear,310,2012-10-07 10:53:00
5:53 AM,32.0,28.9,88,30.04,10.0,NW,6.9,-,N/A,,Clear,310,2012-10-07 11:53:00
6:53 AM,30.9,28.0,89,30.04,10.0,WNW,6.9,-,N/A,,Clear,300,2012-10-07 12:53:00
7:53 AM,30.0,28.0,92,30.05,10.0,West,4.6,-,N/A,,Clear,280,2012-10-07 13:53:00
8:53 AM,37.0,30.9,79,30.04,10.0,WNW,5.8,-,N/A,,Clear,290,2012-10-07 14:53:00
9:53 AM,39.9,32.0,73,30.02,10.0,West,5.8,-,N/A,,Clear,260,2012-10-07 15:53:00
10:53 AM,46.0,35.1,66,30.00,10.0,West,4.6,-,N/A,,Clear,260,2012-10-07 16:53:00
11:53 AM,52.0,36.0,54,29.97,10.0,NW,5.8,-,N/A,,Clear,310,2012-10-07 17:53:00
12:53 PM,54.0,36.0,51,29.94,10.0,WSW,8.1,-,N/A,,Clear,250,2012-10-07 18:53:00
1:53 PM,55.9,36.0,47,29.90,10.0,WSW,6.9,-,N/A,,Clear,240,2012-10-07 19:53:00
2:53 PM,57.0,36.0,45,29.87,10.0,WSW,5.8,-,N/A,,Mostly Cloudy,240,2012-10-07 20:53:00
3:53 PM,59.0,35.1,41,29.82,10.0,SW,8.1,-,N/A,,Mostly Cloudy,220,2012-10-07 21:53:00
4:53 PM,60.1,35.1,39,29.81,10.0,WSW,4.6,-,N/A,,Overcast,240,2012-10-07 22:53:00
5:53 PM,60.1,33.1,36,29.78,10.0,WNW,10.4,-,N/A,,Overcast,290,2012-10-07 23:53:00
6:53 PM,54.0,34.0,47,29.77,10.0,West,8.1,-,N/A,,Partly Cloudy,280,2012-10-08 00:53:00
7:53 PM,55.9,35.1,45,29.76,10.0,West,6.9,-,N/A,,Overcast,280,2012-10-08 01:53:00
8:53 PM,55.9,37.9,51,29.74,10.0,West,8.1,-,N/A,,Overcast,260,2012-10-08 02:53:00
9:53 PM,57.9,37.9,47,29.73,10.0,WNW,16.1,-,N/A,,Mostly Cloudy,300,2012-10-08 03:53:00
10:53 PM,55.0,37.9,53,29.74,10.0,WNW,13.8,-,N/A,,Clear,300,2012-10-08 04:53:00
11:53 PM,53.1,37.9,57,29.75,10.0,WNW,10.4,-,N/A,,Scattered Clouds,290,2012-10-08 05:53:00